Time;durP1;ratioP1;P1;durP2;ratioP2;P2;SDS_P1;SDS_P2;PMS_P1;PMS_P2;Temp;Humidity;BMP_temperature;BMP_pressure;BME280_temperature;BME280_humidity;BME280_pressure;Samples;Min_cycle;Max_cycle;Signal;HPM_P1;HPM_P2
2023/10/18 00:01:49;;;;;;;11.23;2.10;;;7.10;99.90;;;;;;5108385;28;20180;-93
2023/10/18 00:04:22;;;;;;;10.85;2.33;;;7.10;99.90;;;;;;5091902;28;20180;-92
2023/10/18 00:06:55;;;;;;;8.23;2.15;;;7.10;99.90;;;;;;5091596;28;20241;-92
2023/10/18 00:12:09;;;;;;;10.27;2.30;;;7.10;99.90;;;;;;5101903;28;20279;-93
2023/10/18 00:14:39;;;;;;;7.65;2.17;;;7.10;99.90;;;;;;5071362;28;20180;-91
2023/10/18 00:17:06;;;;;;;7.68;2.50;;;7.10;99.90;;;;;;5071639;28;20191;-92
2023/10/18 00:19:34;;;;;;;11.68;2.33;;;7.10;99.90;;;;;;5075036;28;20180;-92
2023/10/18 00:22:02;;;;;;;9.80;2.00;;;7.20;99.90;;;;;;5071779;28;20689;-93
2023/10/18 00:24:30;;;;;;;7.68;2.10;;;7.10;99.90;;;;;;5066752;28;20199;-92
2023/10/18 00:26:58;;;;;;;7.13;2.13;;;7.10;99.90;;;;;;5071264;28;20562;-92
2023/10/18 00:29:26;;;;;;;13.23;2.60;;;7.10;99.90;;;;;;5066800;28;20221;-92
2023/10/18 00:31:54;;;;;;;8.95;2.40;;;7.10;99.90;;;;;;5090294;28;20714;-93
2023/10/18 00:34:22;;;;;;;6.97;1.98;;;7.10;99.90;;;;;;5073862;28;20271;-92
2023/10/18 00:36:50;;;;;;;9.52;2.13;;;7.20;99.90;;;;;;5091488;28;20278;-92
2023/10/18 00:39:27;;;;;;;7.78;2.25;;;7.20;99.90;;;;;;5091747;28;20188;-91
2023/10/18 00:41:59;;;;;;;6.30;2.00;;;7.20;99.90;;;;;;5075459;28;20190;-92
2023/10/18 00:44:27;;;;;;;4.85;2.42;;;7.20;99.90;;;;;;5089037;28;20316;-93
2023/10/18 00:46:56;;;;;;;9.25;2.22;;;7.20;99.90;;;;;;5091723;28;20206;-92
2023/10/18 00:49:24;;;;;;;7.63;1.70;;;7.20;99.90;;;;;;5110370;28;20622;-92
2023/10/18 00:51:52;;;;;;;7.18;2.53;;;7.10;99.90;;;;;;5108049;28;20289;-90
2023/10/18 00:54:20;;;;;;;9.57;2.42;;;7.10;99.90;;;;;;5088147;28;20293;-91
2023/10/18 00:56:49;;;;;;;10.73;2.80;;;7.10;99.90;;;;;;5054591;28;20180;-91
2023/10/18 00:59:26;;;;;;;8.07;2.45;;;7.10;99.90;;;;;;5054062;28;20266;-89
2023/10/18 01:02:09;;;;;;;9.60;2.45;;;7.10;99.90;;;;;;5054550;28;20275;-91
2023/10/18 01:04:41;;;;;;;10.80;2.63;;;7.10;99.90;;;;;;5101418;28;20191;-92
2023/10/18 01:07:13;;;;;;;9.77;2.75;;;7.10;99.90;;;;;;5110714;28;20266;-91
2023/10/18 01:09:49;;;;;;;8.63;2.35;;;7.10;99.90;;;;;;5110961;28;20183;-93
2023/10/18 01:12:17;;;;;;;12.13;3.17;;;7.10;99.90;;;;;;5096204;28;20192;-91
2023/10/18 01:14:45;;;;;;;10.55;2.72;;;7.10;99.90;;;;;;5072992;28;20176;-92
2023/10/18 01:17:15;;;;;;;7.65;2.55;;;7.10;99.90;;;;;;5110588;28;20175;-93
2023/10/18 01:19:43;;;;;;;11.88;2.47;;;7.00;99.90;;;;;;5093488;28;20191;-93
2023/10/18 01:22:12;;;;;;;8.57;2.55;;;7.10;99.90;;;;;;5091272;28;20180;-93
2023/10/18 01:24:40;;;;;;;11.20;2.63;;;7.10;99.90;;;;;;5104285;28;20209;-93
2023/10/18 01:27:08;;;;;;;9.32;2.50;;;7.10;99.90;;;;;;5095515;28;20303;-91
2023/10/18 01:29:38;;;;;;;11.57;2.75;;;7.10;99.90;;;;;;5070558;28;20318;-93
2023/10/18 01:32:06;;;;;;;8.18;2.03;;;7.00;99.90;;;;;;5070154;28;20207;-92
2023/10/18 01:34:33;;;;;;;9.18;2.67;;;7.00;99.90;;;;;;5066176;28;20232;-91
2023/10/18 01:37:02;;;;;;;6.25;2.55;;;7.00;99.90;;;;;;5086491;28;20196;-92
2023/10/18 01:39:29;;;;;;;9.05;2.75;;;7.00;99.90;;;;;;5090056;28;20199;-92
2023/10/18 01:41:58;;;;;;;10.02;2.67;;;7.00;99.90;;;;;;5090223;28;20194;-93
2023/10/18 01:44:35;;;;;;;12.10;2.42;;;7.00;99.90;;;;;;5090851;28;20195;-93
2023/10/18 01:47:06;;;;;;;8.43;2.15;;;7.00;99.90;;;;;;5090281;28;20198;-92
2023/10/18 01:49:54;;;;;;;7.50;2.65;;;7.00;99.90;;;;;;5073612;28;20215;-91
2023/10/18 01:52:22;;;;;;;9.63;2.15;;;7.00;99.90;;;;;;5095284;28;20183;-91
2023/10/18 01:54:52;;;;;;;7.53;2.40;;;7.00;99.90;;;;;;5109742;28;20191;-92
2023/10/18 01:57:20;;;;;;;7.00;2.30;;;6.90;99.90;;;;;;5073498;28;20248;-92
2023/10/18 01:59:51;;;;;;;9.32;2.00;;;6.90;99.90;;;;;;5098226;28;20210;-90
2023/10/18 02:02:18;;;;;;;6.70;1.98;;;6.90;99.90;;;;;;5110574;28;20198;-91
2023/10/18 02:04:49;;;;;;;6.38;1.70;;;6.90;99.90;;;;;;5096663;28;20223;-91
2023/10/18 02:07:21;;;;;;;5.30;2.10;;;6.90;99.90;;;;;;5073856;28;20221;-91
2023/10/18 02:09:52;;;;;;;7.60;2.20;;;6.90;99.90;;;;;;5086543;28;20199;-93
2023/10/18 02:12:21;;;;;;;7.00;2.13;;;6.90;99.90;;;;;;5101798;28;20245;-92
2023/10/18 02:14:50;;;;;;;4.70;1.70;;;6.90;99.90;;;;;;5073800;28;20268;-92
2023/10/18 02:17:18;;;;;;;5.20;2.00;;;6.80;99.90;;;;;;5087035;28;20655;-91
2023/10/18 02:19:48;;;;;;;6.53;2.15;;;6.80;99.90;;;;;;5073321;28;20635;-91
2023/10/18 02:22:18;;;;;;;5.38;1.73;;;6.80;99.90;;;;;;5075905;28;20191;-91
2023/10/18 02:24:50;;;;;;;7.47;1.58;;;6.80;99.90;;;;;;5073640;28;20227;-92
2023/10/18 02:27:19;;;;;;;2.92;1.38;;;6.80;99.90;;;;;;5107804;28;20299;-92
2023/10/18 02:29:47;;;;;;;2.53;1.30;;;6.80;99.90;;;;;;5097423;28;20223;-92
2023/10/18 02:32:32;;;;;;;3.20;1.13;;;6.80;99.90;;;;;;5090560;28;20548;-92
2023/10/18 02:35:07;;;;;;;5.65;1.00;;;6.80;99.90;;;;;;5073708;28;20853;-93
2023/10/18 02:37:36;;;;;;;1.23;0.80;;;6.70;99.90;;;;;;5074175;28;20193;-92
2023/10/18 02:40:18;;;;;;;3.60;0.93;;;6.70;99.90;;;;;;5108981;28;20187;-92
2023/10/18 02:42:48;;;;;;;1.90;1.00;;;6.70;99.90;;;;;;5097187;28;20191;-91
2023/10/18 02:45:17;;;;;;;2.75;1.00;;;6.70;99.90;;;;;;5095806;28;20196;-92
2023/10/18 02:47:45;;;;;;;4.80;0.90;;;6.70;99.90;;;;;;5076921;28;20196;-91
2023/10/18 02:50:14;;;;;;;1.52;0.70;;;6.70;99.90;;;;;;5093446;28;20274;-91
2023/10/18 02:52:45;;;;;;;3.13;0.65;;;6.60;99.90;;;;;;5086403;28;20198;-91
2023/10/18 02:55:18;;;;;;;1.00;0.52;;;6.60;99.90;;;;;;5093109;28;20184;-90
2023/10/18 02:57:47;;;;;;;2.55;0.77;;;6.60;99.90;;;;;;5093834;28;20187;-92
2023/10/18 03:00:20;;;;;;;1.85;0.60;;;6.60;99.90;;;;;;5090323;28;20594;-90
2023/10/18 03:02:48;;;;;;;1.30;0.60;;;6.60;99.90;;;;;;5073724;28;20181;-92
2023/10/18 03:05:20;;;;;;;0.93;0.43;;;6.60;99.90;;;;;;5088494;28;20192;-93
2023/10/18 03:07:47;;;;;;;2.97;0.68;;;6.50;99.90;;;;;;5056258;28;20192;-91
2023/10/18 03:10:28;;;;;;;4.70;0.55;;;6.50;99.90;;;;;;5074544;28;20189;-91
2023/10/18 03:12:56;;;;;;;1.92;0.60;;;6.50;99.90;;;;;;5104083;28;20184;-91
2023/10/18 03:15:24;;;;;;;0.63;0.40;;;6.40;99.90;;;;;;5093624;28;20218;-91
2023/10/18 03:17:51;;;;;;;1.90;0.40;;;6.50;99.90;;;;;;5109339;28;20198;-92
2023/10/18 03:20:22;;;;;;;1.02;0.50;;;6.50;99.90;;;;;;5087292;28;20719;-92
2023/10/18 03:22:51;;;;;;;1.85;0.60;;;6.50;99.90;;;;;;5074407;28;20199;-92
2023/10/18 03:25:28;;;;;;;1.27;0.50;;;6.50;99.90;;;;;;5094311;28;20186;-92
2023/10/18 03:27:58;;;;;;;0.95;0.60;;;6.50;99.90;;;;;;5081606;28;20308;-92
2023/10/18 03:30:44;;;;;;;1.98;0.60;;;6.60;99.90;;;;;;5107011;28;20184;-91
2023/10/18 03:33:13;;;;;;;1.27;0.70;;;6.50;99.90;;;;;;5129826;27;20598;-93
2023/10/18 03:35:43;;;;;;;1.05;0.73;;;6.50;99.90;;;;;;5113382;28;20183;-91
2023/10/18 03:38:17;;;;;;;1.77;0.90;;;6.50;99.90;;;;;;5108552;28;20553;-92
2023/10/18 03:40:49;;;;;;;2.92;1.23;;;6.50;99.90;;;;;;5084822;28;20232;-92
2023/10/18 03:43:25;;;;;;;2.33;1.05;;;6.50;99.90;;;;;;5075068;28;20184;-90
2023/10/18 03:46:18;;;;;;;1.67;0.80;;;6.50;99.90;;;;;;5092291;28;20271;-91
2023/10/18 03:48:54;;;;;;;3.17;1.00;;;6.60;99.90;;;;;;5092733;28;20214;-91
2023/10/18 03:51:23;;;;;;;3.25;0.73;;;6.60;99.90;;;;;;5089732;28;20185;-92
2023/10/18 03:53:55;;;;;;;0.93;0.80;;;6.60;99.90;;;;;;5056144;28;20188;-90
2023/10/18 03:56:23;;;;;;;2.75;0.70;;;6.60;99.90;;;;;;5073399;28;20279;-90
2023/10/18 03:59:00;;;;;;;4.97;1.08;;;6.50;99.90;;;;;;5073782;28;20314;-91
2023/10/18 04:01:39;;;;;;;2.25;0.68;;;6.50;99.90;;;;;;5072544;28;20216;-92
2023/10/18 04:04:08;;;;;;;2.88;0.77;;;6.50;99.90;;;;;;5096569;28;20183;-92
2023/10/18 04:06:36;;;;;;;3.50;0.70;;;6.50;99.90;;;;;;5091646;28;20552;-92
2023/10/18 04:09:14;;;;;;;2.10;0.47;;;6.50;99.90;;;;;;5075154;28;20299;-92
2023/10/18 04:11:42;;;;;;;2.33;0.60;;;6.50;99.90;;;;;;5109459;28;20200;-92
2023/10/18 04:14:10;;;;;;;2.25;0.73;;;6.50;99.90;;;;;;5074716;28;20231;-91
2023/10/18 04:16:38;;;;;;;0.68;0.55;;;6.60;99.90;;;;;;5092289;28;20807;-90
2023/10/18 04:19:08;;;;;;;2.35;0.63;;;6.60;99.90;;;;;;5091350;28;20726;-91
2023/10/18 04:21:36;;;;;;;1.15;0.60;;;6.60;99.90;;;;;;5091899;28;20196;-91
2023/10/18 04:24:04;;;;;;;1.58;0.47;;;6.60;99.90;;;;;;5088734;28;20192;-92
2023/10/18 04:26:32;;;;;;;2.20;0.75;;;6.60;99.90;;;;;;5068230;28;20188;-91
2023/10/18 04:29:10;;;;;;;1.42;0.70;;;6.60;99.90;;;;;;5091386;28;20212;-92
2023/10/18 04:31:38;;;;;;;0.98;0.60;;;6.60;99.90;;;;;;5110045;28;20580;-91
2023/10/18 04:34:07;;;;;;;4.40;0.70;;;6.60;99.90;;;;;;5087408;28;20566;-92
2023/10/18 04:36:35;;;;;;;1.05;0.70;;;6.60;99.90;;;;;;5086177;28;20217;-93
2023/10/18 04:39:06;;;;;;;1.67;0.50;;;6.60;99.90;;;;;;5054243;28;20604;-92
2023/10/18 04:41:36;;;;;;;0.90;0.60;;;6.60;99.90;;;;;;5107626;28;20190;-91
2023/10/18 04:44:08;;;;;;;1.77;0.60;;;6.60;99.90;;;;;;5096878;28;20633;-91
2023/10/18 04:46:36;;;;;;;1.92;0.65;;;6.60;99.90;;;;;;5091849;28;20201;-90
2023/10/18 04:54:11;;;;;;;1.20;0.47;;;6.70;99.90;;;;;;5094632;28;20180;-92
2023/10/18 04:56:39;;;;;;;2.05;0.50;;;6.60;99.90;;;;;;5109074;28;20198;-89
2023/10/18 04:59:11;;;;;;;2.83;0.30;;;6.60;99.90;;;;;;5113667;28;20183;-90
2023/10/18 05:01:56;;;;;;;3.08;0.60;;;6.60;99.90;;;;;;5094020;28;20646;-91
2023/10/18 05:07:04;;;;;;;2.53;0.57;;;6.60;99.90;;;;;;5106895;28;20632;-90
2023/10/18 05:09:43;;;;;;;0.30;0.30;;;6.70;99.90;;;;;;5105525;28;20284;-90
2023/10/18 05:14:44;;;;;;;1.50;0.30;;;6.60;99.90;;;;;;5092284;28;20180;-90
2023/10/18 05:17:26;;;;;;;3.97;0.60;;;6.60;99.90;;;;;;5091430;28;20183;-90
2023/10/18 05:19:56;;;;;;;0.60;0.30;;;6.60;99.90;;;;;;5074493;28;20851;-91
2023/10/18 05:22:25;;;;;;;1.55;0.30;;;6.60;99.90;;;;;;5091109;28;20270;-87
2023/10/18 05:28:00;;;;;;;0.75;0.28;;;6.60;99.90;;;;;;5093122;28;20195;-90
2023/10/18 05:33:47;;;;;;;0.20;0.20;;;6.60;99.90;;;;;;5102512;28;20268;-90
2023/10/18 05:41:28;;;;;;;1.35;0.45;;;6.60;99.90;;;;;;5089900;28;20198;-92
2023/10/18 05:44:00;;;;;;;1.08;0.40;;;6.60;99.90;;;;;;5075116;28;20184;-91
2023/10/18 05:46:33;;;;;;;0.40;0.35;;;6.50;99.90;;;;;;5090037;28;20285;-91
2023/10/18 05:49:01;;;;;;;1.63;0.30;;;6.50;99.90;;;;;;5098224;28;20208;-91
2023/10/18 05:54:06;;;;;;;0.38;0.30;;;6.50;99.90;;;;;;5110603;28;20675;-90
2023/10/18 05:56:34;;;;;;;0.30;0.30;;;6.40;99.90;;;;;;5116327;28;20189;-90
2023/10/18 06:01:50;;;;;;;0.30;0.30;;;6.50;99.90;;;;;;5096707;28;20637;-91
2023/10/18 06:04:27;;;;;;;0.50;0.30;;;6.50;99.90;;;;;;5095312;28;20191;-91
2023/10/18 06:06:59;;;;;;;0.30;0.30;;;6.50;99.90;;;;;;5096685;28;20171;-90
2023/10/18 06:09:27;;;;;;;0.50;0.40;;;6.50;99.90;;;;;;5088951;28;20203;-91
2023/10/18 06:11:56;;;;;;;0.60;0.30;;;6.50;99.90;;;;;;5111559;28;20184;-91
2023/10/18 06:14:33;;;;;;;1.40;0.32;;;6.50;99.90;;;;;;5088613;28;20188;-89
2023/10/18 06:17:06;;;;;;;0.50;0.30;;;6.50;99.90;;;;;;5076180;28;20541;-91
2023/10/18 06:19:37;;;;;;;0.20;0.20;;;6.50;99.90;;;;;;5076273;28;20188;-92
2023/10/18 06:22:15;;;;;;;0.93;0.50;;;6.40;99.90;;;;;;5093612;28;20169;-91
2023/10/18 06:24:48;;;;;;;0.30;0.20;;;6.40;99.90;;;;;;5080118;28;20192;-90
2023/10/18 06:27:16;;;;;;;0.20;0.20;;;6.40;99.90;;;;;;5096354;28;20687;-91
2023/10/18 06:29:45;;;;;;;0.60;0.30;;;6.40;99.90;;;;;;5092835;28;20284;-91
2023/10/18 06:32:14;;;;;;;0.65;0.30;;;6.40;99.90;;;;;;5075857;28;20238;-90
2023/10/18 06:34:45;;;;;;;1.67;0.20;;;6.50;99.90;;;;;;5075767;28;20220;-90
2023/10/18 06:37:22;;;;;;;0.52;0.40;;;6.50;99.90;;;;;;5059357;28;20524;-91
2023/10/18 06:39:51;;;;;;;0.40;0.40;;;6.50;99.90;;;;;;5103579;28;20178;-90
2023/10/18 06:42:21;;;;;;;0.32;0.30;;;6.60;99.90;;;;;;5100710;28;20192;-90
2023/10/18 06:44:49;;;;;;;2.13;0.30;;;6.40;99.90;;;;;;5075576;28;20216;-91
2023/10/18 06:47:18;;;;;;;1.98;0.38;;;6.50;99.90;;;;;;5075282;28;20245;-90
2023/10/18 06:49:48;;;;;;;0.30;0.30;;;6.50;99.90;;;;;;5074059;28;20232;-90
2023/10/18 06:52:17;;;;;;;0.73;0.40;;;6.50;99.90;;;;;;5078065;28;20184;-91
2023/10/18 06:54:46;;;;;;;1.92;0.20;;;6.50;99.90;;;;;;5095728;28;20184;-92
2023/10/18 06:57:18;;;;;;;0.45;0.30;;;6.50;99.90;;;;;;5086090;28;20702;-90
2023/10/18 06:59:47;;;;;;;0.65;0.32;;;6.50;99.90;;;;;;5095113;28;20196;-89
2023/10/18 07:02:26;;;;;;;0.30;0.30;;;6.50;99.90;;;;;;5079101;28;20184;-90
2023/10/18 07:04:56;;;;;;;0.75;0.30;;;6.50;99.90;;;;;;5073727;28;20203;-92
2023/10/18 07:07:24;;;;;;;0.63;0.30;;;6.60;99.90;;;;;;5076694;28;20193;-90
2023/10/18 07:09:54;;;;;;;0.75;0.30;;;6.70;99.90;;;;;;5066657;28;20701;-92
2023/10/18 07:12:27;;;;;;;0.75;0.30;;;6.70;99.90;;;;;;5097768;28;20186;-91
2023/10/18 07:14:57;;;;;;;2.15;0.40;;;6.70;99.90;;;;;;5095311;28;20608;-91
2023/10/18 07:17:25;;;;;;;3.28;0.30;;;6.70;99.90;;;;;;5093104;28;20224;-92
2023/10/18 07:19:56;;;;;;;1.48;0.30;;;6.70;99.90;;;;;;5075377;28;20204;-91
2023/10/18 07:25:28;;;;;;;1.75;0.35;;;6.70;99.90;;;;;;5095249;28;20188;-91
2023/10/18 07:27:57;;;;;;;0.73;0.30;;;6.70;99.90;;;;;;5096690;28;20263;-89
2023/10/18 07:30:37;;;;;;;0.63;0.20;;;6.70;99.90;;;;;;5074536;28;20214;-92
2023/10/18 07:33:12;;;;;;;0.85;0.30;;;6.70;99.90;;;;;;5073366;28;20226;-92
2023/10/18 07:35:45;;;;;;;0.50;0.30;;;6.70;99.90;;;;;;5114401;28;20187;-91
2023/10/18 07:38:14;;;;;;;0.80;0.40;;;6.70;99.90;;;;;;5095047;28;20618;-91
2023/10/18 07:40:56;;;;;;;0.63;0.22;;;6.70;99.90;;;;;;5077600;28;20196;-90
2023/10/18 07:43:25;;;;;;;2.10;0.30;;;6.70;99.90;;;;;;5078010;28;20219;-91
2023/10/18 07:45:54;;;;;;;5.25;0.43;;;6.70;99.90;;;;;;5094153;28;20215;-91
2023/10/18 07:48:23;;;;;;;2.20;0.30;;;6.70;99.90;;;;;;5074400;28;20570;-92
2023/10/18 07:50:51;;;;;;;0.65;0.20;;;6.70;99.90;;;;;;5074455;28;20204;-91
2023/10/18 07:53:20;;;;;;;0.30;0.20;;;6.60;99.90;;;;;;5085052;28;20183;-91
2023/10/18 07:55:53;;;;;;;0.45;0.30;;;6.70;99.90;;;;;;5115308;28;20195;-91
2023/10/18 07:58:24;;;;;;;1.25;0.38;;;6.70;99.90;;;;;;5074258;28;20658;-91
2023/10/18 08:03:31;;;;;;;1.38;0.30;;;6.70;99.90;;;;;;5098201;28;20228;-91
2023/10/18 08:06:04;;;;;;;2.08;0.32;;;6.70;99.90;;;;;;5113140;28;20188;-91
2023/10/18 08:08:36;;;;;;;0.63;0.40;;;6.80;99.90;;;;;;5073981;28;20239;-92
2023/10/18 08:11:06;;;;;;;1.25;0.38;;;6.80;99.90;;;;;;5077478;28;20679;-91
2023/10/18 08:13:43;;;;;;;0.30;0.30;;;6.80;99.90;;;;;;5093537;28;20184;-91
2023/10/18 08:16:19;;;;;;;0.35;0.30;;;6.90;99.90;;;;;;5073823;28;20652;-91
2023/10/18 08:18:53;;;;;;;1.02;0.40;;;6.90;99.90;;;;;;5092472;28;20188;-91
2023/10/18 08:21:28;;;;;;;1.80;0.40;;;7.00;99.90;;;;;;5077610;28;20566;-90
2023/10/18 08:23:56;;;;;;;1.92;0.30;;;7.00;99.90;;;;;;5073446;28;20188;-91
2023/10/18 08:26:27;;;;;;;0.73;0.28;;;7.00;99.90;;;;;;5075668;28;20657;-91
2023/10/18 08:28:55;;;;;;;0.60;0.35;;;7.00;99.90;;;;;;5059139;28;20258;-91
2023/10/18 08:31:32;;;;;;;1.40;0.43;;;7.00;99.90;;;;;;5114176;28;20218;-90
2023/10/18 08:34:15;;;;;;;1.55;0.30;;;6.90;99.90;;;;;;5093048;28;20756;-90
2023/10/18 08:36:46;;;;;;;0.75;0.40;;;6.90;99.90;;;;;;5093205;28;20187;-91
2023/10/18 08:39:16;;;;;;;0.30;0.30;;;6.90;99.90;;;;;;5107699;28;20198;-90
2023/10/18 08:41:58;;;;;;;0.88;0.45;;;6.90;99.90;;;;;;5075503;28;20560;-89
2023/10/18 08:44:29;;;;;;;2.83;0.40;;;7.00;99.90;;;;;;5093321;28;20188;-90
2023/10/18 08:49:53;;;;;;;0.20;0.20;;;7.00;99.90;;;;;;5081300;28;20249;-90
2023/10/18 08:52:30;;;;;;;2.63;0.40;;;7.00;99.90;;;;;;5080679;28;20192;-91
2023/10/18 08:55:19;;;;;;;1.17;0.30;;;7.00;99.90;;;;;;5097605;28;20191;-91
2023/10/18 08:57:48;;;;;;;1.23;0.28;;;6.90;99.90;;;;;;5081130;28;20185;-92
2023/10/18 09:02:53;;;;;;;0.52;0.30;;;6.90;99.90;;;;;;5080607;28;20184;-90
2023/10/18 09:05:24;;;;;;;1.65;0.30;;;6.90;99.90;;;;;;5076150;28;20290;-91
2023/10/18 09:07:54;;;;;;;0.40;0.30;;;7.00;99.90;;;;;;5069041;28;20202;-92
2023/10/18 09:11:09;;;;;;;0.50;0.22;;;7.00;99.90;;;;;;5090282;28;20201;-91
2023/10/18 09:18:31;;;;;;;0.22;0.20;;;7.00;99.90;;;;;;5094060;28;20214;-91
2023/10/18 09:21:08;;;;;;;0.70;0.20;;;6.90;99.90;;;;;;5091182;28;20626;-90
2023/10/18 09:23:40;;;;;;;0.38;0.22;;;7.00;99.90;;;;;;5091060;28;20661;-91
2023/10/18 09:26:10;;;;;;;0.90;0.20;;;7.10;99.90;;;;;;5088961;28;20188;-91
2023/10/18 09:28:41;;;;;;;0.13;0.10;;;7.10;99.90;;;;;;5074664;28;20207;-91
2023/10/18 09:31:20;;;;;;;0.30;0.20;;;7.10;99.90;;;;;;5091880;28;20251;-91
2023/10/18 09:33:58;;;;;;;0.70;0.30;;;7.10;99.90;;;;;;5089564;28;20226;-93
2023/10/18 09:36:27;;;;;;;0.45;0.20;;;7.10;99.90;;;;;;5091121;28;20705;-92
2023/10/18 09:38:57;;;;;;;0.65;0.22;;;7.00;99.90;;;;;;5091125;28;20224;-91
2023/10/18 09:41:30;;;;;;;0.10;0.10;;;7.00;99.90;;;;;;5084635;28;20678;-91
2023/10/18 09:44:01;;;;;;;0.20;0.13;;;7.00;99.90;;;;;;5087821;28;20191;-90
2023/10/18 09:46:30;;;;;;;0.28;0.20;;;7.00;99.90;;;;;;5092139;28;20692;-91
2023/10/18 09:48:59;;;;;;;0.65;0.30;;;7.00;99.90;;;;;;5090717;28;20192;-91
2023/10/18 09:51:27;;;;;;;0.43;0.15;;;7.10;99.90;;;;;;5085032;28;20220;-91
2023/10/18 09:53:55;;;;;;;0.35;0.20;;;7.10;99.90;;;;;;5079324;28;20195;-90
2023/10/18 09:56:33;;;;;;;0.20;0.20;;;7.10;99.90;;;;;;5077602;28;20245;-93
2023/10/18 09:59:08;;;;;;;2.47;0.30;;;7.20;99.90;;;;;;5081358;28;20192;-91
2023/10/18 10:04:14;;;;;;;0.52;0.20;;;7.40;99.90;;;;;;5090250;28;20395;-89
2023/10/18 10:06:46;;;;;;;2.75;0.20;;;7.40;99.90;;;;;;5088645;28;20280;-90
2023/10/18 10:09:15;;;;;;;0.10;0.10;;;7.40;99.90;;;;;;5077011;28;20192;-91
2023/10/18 10:11:45;;;;;;;1.27;0.20;;;7.30;99.90;;;;;;5073011;28;20695;-91
2023/10/18 10:14:21;;;;;;;0.38;0.17;;;7.30;99.90;;;;;;5086815;28;20241;-91
2023/10/18 10:16:52;;;;;;;0.63;0.30;;;7.20;99.90;;;;;;5087178;28;20198;-91
2023/10/18 10:19:28;;;;;;;0.68;0.17;;;7.20;99.90;;;;;;5074811;28;20191;-91
2023/10/18 10:22:04;;;;;;;1.00;0.20;;;7.20;99.90;;;;;;5074051;28;20665;-92
2023/10/18 10:24:43;;;;;;;0.20;0.20;;;7.10;99.90;;;;;;5091363;28;20657;-91
2023/10/18 10:32:54;;;;;;;0.10;0.10;;;7.10;99.90;;;;;;5103284;28;20214;-91
2023/10/18 10:35:27;;;;;;;0.17;0.17;;;7.30;99.90;;;;;;5079257;28;20198;-91
2023/10/18 10:38:21;;;;;;;0.10;0.10;;;7.40;99.90;;;;;;5061349;28;20181;-90
2023/10/18 10:41:19;;;;;;;0.10;0.10;;;7.60;99.90;;;;;;5094073;28;20195;-90
2023/10/18 10:44:21;;;;;;;0.28;0.20;;;7.90;99.90;;;;;;5085253;28;20246;-92
2023/10/18 10:46:53;;;;;;;0.68;0.10;;;7.90;99.90;;;;;;5085906;28;20237;-91
2023/10/18 10:49:47;;;;;;;0.15;0.15;;;7.80;99.90;;;;;;5094077;28;20206;-92
2023/10/18 10:52:19;;;;;;;0.20;0.20;;;7.50;99.90;;;;;;5067072;28;20529;-91
2023/10/18 10:54:53;;;;;;;0.20;0.20;;;7.40;99.90;;;;;;5069174;28;20560;-92
2023/10/18 10:57:21;;;;;;;1.38;0.20;;;7.30;99.90;;;;;;5094986;28;20279;-91
2023/10/18 10:59:55;;;;;;;0.17;0.10;;;7.30;99.90;;;;;;5103520;28;20179;-91
2023/10/18 11:02:39;;;;;;;0.20;0.20;;;7.20;99.90;;;;;;5078867;28;20188;-91
2023/10/18 11:05:16;;;;;;;0.47;0.20;;;7.10;99.90;;;;;;5098124;28;20223;-91
2023/10/18 11:07:45;;;;;;;0.13;0.10;;;7.00;99.90;;;;;;5094581;28;20253;-92
2023/10/18 11:10:17;;;;;;;2.53;0.20;;;6.90;99.90;;;;;;5092781;28;20449;-92
2023/10/18 11:12:45;;;;;;;0.60;0.20;;;6.90;99.90;;;;;;5085904;28;20195;-91
2023/10/18 11:15:16;;;;;;;0.90;0.20;;;6.90;99.90;;;;;;5078205;28;20279;-91
2023/10/18 11:17:47;;;;;;;0.38;0.22;;;6.90;99.90;;;;;;5090509;28;20188;-90
2023/10/18 11:20:19;;;;;;;0.17;0.17;;;6.70;99.90;;;;;;5095196;28;20562;-91
2023/10/18 11:22:48;;;;;;;0.20;0.20;;;6.80;99.90;;;;;;5074941;28;20197;-90
2023/10/18 11:25:20;;;;;;;0.10;0.10;;;6.70;99.90;;;;;;5071701;28;20192;-91
2023/10/18 11:27:48;;;;;;;0.40;0.10;;;6.60;99.90;;;;;;5107780;28;20194;-91
2023/10/18 11:30:22;;;;;;;0.10;0.10;;;6.40;99.90;;;;;;5115397;28;20546;-91
2023/10/18 11:32:55;;;;;;;1.85;0.32;;;6.20;99.90;;;;;;5115097;28;20203;-91
2023/10/18 11:38:27;;;;;;;0.10;0.10;;;6.20;99.90;;;;;;5073075;28;20549;-93
2023/10/18 11:40:54;;;;;;;0.20;0.15;;;6.20;99.90;;;;;;5078088;28;20569;-91
2023/10/18 11:43:28;;;;;;;1.20;0.30;;;6.20;99.90;;;;;;5089723;28;20212;-92
2023/10/18 11:46:13;;;;;;;0.10;0.10;;;6.10;99.90;;;;;;5078571;28;20188;-92
2023/10/18 11:48:55;;;;;;;0.10;0.10;;;6.10;99.90;;;;;;5079208;28;20218;-91
2023/10/18 11:51:25;;;;;;;1.23;0.20;;;6.20;99.90;;;;;;5094570;28;20700;-91
2023/10/18 11:53:54;;;;;;;0.28;0.22;;;6.10;99.90;;;;;;5094454;28;20192;-92
2023/10/18 11:56:23;;;;;;;0.10;0.10;;;6.00;99.90;;;;;;5111212;28;20237;-91
2023/10/18 11:59:02;;;;;;;0.10;0.10;;;5.90;99.90;;;;;;5094820;28;20180;-91
2023/10/18 12:01:38;;;;;;;0.10;0.10;;;5.80;99.90;;;;;;5110104;28;20241;-90
2023/10/18 12:04:06;;;;;;;0.10;0.10;;;5.50;99.90;;;;;;5094092;28;20183;-91
2023/10/18 12:06:34;;;;;;;0.10;0.10;;;5.60;99.90;;;;;;5084377;28;20898;-92
2023/10/18 12:11:39;;;;;;;0.10;0.10;;;5.60;99.90;;;;;;5091217;28;20204;-91
2023/10/18 12:14:08;;;;;;;0.20;0.20;;;5.50;99.90;;;;;;5096810;28;20664;-91
2023/10/18 12:16:36;;;;;;;0.45;0.30;;;5.40;99.90;;;;;;5114590;28;20179;-88
2023/10/18 12:19:06;;;;;;;0.55;0.40;;;5.40;99.90;;;;;;5112896;28;20289;-91
2023/10/18 12:21:34;;;;;;;0.98;0.35;;;5.20;99.90;;;;;;5077726;28;20257;-90
2023/10/18 12:24:07;;;;;;;0.47;0.30;;;5.20;99.90;;;;;;5106355;28;20211;-91
2023/10/18 12:26:45;;;;;;;0.38;0.30;;;5.00;99.90;;;;;;5093094;28;20608;-91
2023/10/18 12:29:16;;;;;;;0.47;0.30;;;5.10;99.90;;;;;;5092943;28;20176;-91
2023/10/18 12:31:52;;;;;;;0.73;0.20;;;5.00;99.90;;;;;;5075862;28;20204;-91
2023/10/18 12:34:28;;;;;;;1.05;0.30;;;4.80;99.90;;;;;;5093134;28;20216;-91
2023/10/18 12:36:58;;;;;;;0.28;0.22;;;4.70;99.90;;;;;;5080755;28;20168;-91
2023/10/18 12:39:26;;;;;;;1.30;0.40;;;4.90;99.90;;;;;;5074575;28;20187;-91
2023/10/18 12:41:57;;;;;;;0.80;0.25;;;5.00;99.90;;;;;;5077365;28;20185;-90
2023/10/18 12:44:29;;;;;;;0.30;0.30;;;5.00;99.90;;;;;;5113881;28;20933;-90
2023/10/18 12:47:09;;;;;;;1.48;0.30;;;4.90;99.90;;;;;;5095705;28;20639;-91
2023/10/18 12:49:43;;;;;;;0.30;0.30;;;4.90;99.90;;;;;;5056491;28;20275;-92
2023/10/18 12:58:09;;;;;;;0.50;0.40;;;4.30;99.90;;;;;;5115366;28;20592;-90
2023/10/18 13:00:42;;;;;;;0.30;0.10;;;4.50;99.90;;;;;;5084877;28;20206;-91
2023/10/18 13:05:46;;;;;;;0.20;0.20;;;4.40;99.90;;;;;;5093651;28;20192;-91
2023/10/18 13:08:25;;;;;;;0.20;0.20;;;4.40;99.90;;;;;;5073092;28;20249;-90
2023/10/18 13:13:33;;;;;;;0.45;0.30;;;4.40;99.90;;;;;;5072926;28;20188;-89
2023/10/18 13:16:00;;;;;;;1.30;1.20;;;4.30;99.90;;;;;;5077422;28;20181;-90
2023/10/18 13:18:29;;;;;;;0.50;0.50;;;4.30;99.90;;;;;;5113283;28;20187;-91
2023/10/18 13:21:05;;;;;;;0.20;0.20;;;4.30;99.90;;;;;;5113274;28;20206;-90
2023/10/18 13:23:33;;;;;;;1.05;0.30;;;4.40;99.90;;;;;;5091743;28;20204;-91
2023/10/18 13:26:03;;;;;;;1.63;0.60;;;4.40;99.90;;;;;;5072528;28;20193;-90
2023/10/18 13:31:06;;;;;;;1.05;0.52;;;4.20;99.90;;;;;;5073839;28;20548;-91
2023/10/18 13:33:34;;;;;;;1.95;0.45;;;4.30;99.90;;;;;;5088960;28;20767;-91
2023/10/18 13:36:04;;;;;;;0.30;0.30;;;4.30;99.90;;;;;;5079578;28;20218;-91
2023/10/18 13:38:32;;;;;;;1.10;0.57;;;4.30;99.90;;;;;;5096952;28;20184;-90
2023/10/18 13:41:01;;;;;;;1.75;0.50;;;4.30;99.90;;;;;;5091260;28;20241;-90
2023/10/18 13:43:30;;;;;;;1.30;0.70;;;4.40;99.90;;;;;;5090868;28;20184;-91
2023/10/18 13:45:59;;;;;;;1.80;0.52;;;4.40;99.90;;;;;;5112123;28;20194;-89
2023/10/18 13:48:27;;;;;;;1.02;0.70;;;4.30;99.90;;;;;;5112619;28;20930;-90
2023/10/18 13:50:58;;;;;;;2.00;0.88;;;4.30;99.90;;;;;;5097273;28;20207;-91
2023/10/18 13:53:26;;;;;;;2.75;1.10;;;4.10;99.90;;;;;;5075928;28;20257;-90
2023/10/18 13:55:58;;;;;;;0.93;0.75;;;4.10;99.90;;;;;;5092475;28;20184;-90
2023/10/18 13:58:29;;;;;;;1.45;0.80;;;4.10;99.90;;;;;;5092641;28;20188;-90
2023/10/18 14:00:58;;;;;;;2.15;0.90;;;4.10;99.90;;;;;;5109541;28;20649;-91
2023/10/18 14:03:33;;;;;;;4.72;1.05;;;4.00;99.90;;;;;;5109643;28;20183;-90
2023/10/18 14:06:01;;;;;;;1.48;0.90;;;4.10;99.90;;;;;;5073779;28;20201;-91
2023/10/18 14:08:28;;;;;;;1.08;0.75;;;4.10;99.90;;;;;;5092491;28;20200;-90
2023/10/18 14:10:58;;;;;;;1.83;0.95;;;4.10;99.90;;;;;;5072289;28;20291;-90
2023/10/18 14:13:27;;;;;;;3.58;0.93;;;3.90;99.90;;;;;;5054972;28;20639;-89
2023/10/18 14:15:55;;;;;;;1.20;0.95;;;3.90;99.90;;;;;;5076668;28;20638;-90
2023/10/18 14:18:25;;;;;;;3.58;1.05;;;3.90;99.90;;;;;;5075690;28;20661;-90
2023/10/18 14:20:53;;;;;;;1.48;0.80;;;4.00;99.90;;;;;;5081229;28;20623;-90
2023/10/18 14:23:27;;;;;;;2.17;0.98;;;4.00;99.90;;;;;;5060133;28;20280;-91
2023/10/18 14:25:55;;;;;;;2.67;0.90;;;4.00;99.90;;;;;;5077308;28;20176;-89
2023/10/18 14:28:23;;;;;;;5.82;3.55;;;3.80;99.90;;;;;;5083455;28;20189;-90
2023/10/18 14:30:53;;;;;;;2.72;1.42;;;3.90;99.90;;;;;;5094407;28;20214;-89
2023/10/18 14:33:21;;;;;;;2.75;1.27;;;3.90;99.90;;;;;;5075512;28;20270;-90
2023/10/18 14:36:13;;;;;;;3.00;1.20;;;3.70;99.90;;;;;;5108607;28;20196;-90